Belgrade, MT (59714)

2:09 AM MST on November 22, 2017 (GMT -0700)
Quaw Blvd | | Change Station

Elev 4454 ft 45.78 °N, 111.18 °W | Updated 9 seconds ago

Overcast
Overcast
37.4 °F
Feels Like 37 °F
N
0.4
Wind Variable Wind from NE
Gusts 2.5 mph

Today
High -- | Low -- °F
--% Chance of Precip.
Yesterday
High -- | Low -- °F
Precip. -- in
Pressure 30.21 in
Visibility 10.0 miles
Clouds Few 8000 ft
Overcast 11000 ft
Windchill 37 °F
Dew Point 34 °F
Humidity 89%
Rainfall 0.00 in
Snow Depth Not available.
7:34 AM 4:47 PM
Waxing Crescent, 13% visible
METAR KBZN 220856Z AUTO VRB05KT 10SM FEW080 OVC110 03/00 A3016 RMK AO2 SLP229 T00280000 58007
Pressure 30.21 in
Visibility 10.0 miles
Clouds Few 8000 ft
Overcast 11000 ft
Windchill 37 °F
Dew Point 34 °F
Humidity 89%
Rainfall 0.00 in
Snow Depth Not available.
7:34 AM 4:47 PM
Waxing Crescent, 13% visible
METAR KBZN 220856Z AUTO VRB05KT 10SM FEW080 OVC110 03/00 A3016 RMK AO2 SLP229 T00280000 58007

Get Severe Weather Alerts

Thanks for signing up!

Be on the lookout for a verification email in your inbox.

You'll start receiving the daily forecast at 6 AM.

×

10-Day Weather Forecast

Almanac

Astronomy

Nov. 22, 2017 Rise Set
Actual Time
Civil Twilight
Nautical Twilight
Astronomical Twilight
Moon
Length of Visible Light
Length of Day
Tomorrow will be .
, % of the Moon is Illuminated

Today's Extremes

State Highs State Lows

Community

WunderPhotos

Category 6

Welcome to Category 6. This is the collective home for Weather Underground's featured writeups by Dr. Jeff Masters (right), Bob Henson (left), Chris Burt, and other regular contributors.

Nearby

Air Quality

  Air Quality AQ Index Pollutant
Not available.

Snow Depth

Station Depth Elevation

Earthquake Activity

City Distance Mag. Time & Date
Minimum magnitude displayed is 2.5.

Coastal Water Temperatures

Place Temperature

Stations

Nearby Weather Stations

Station Location Temp. Windchill Dew Point Humidity Wind Precip. Elev Updated Type
                   

Watches & Warnings

There are currently no watches in effect.